Poptun, Guatemala
Current Conditions -  °F | °C
As of 12:00 PM on Saturday 20 Dec 2014 (Local Time) from MGMM Reporting Station
Broken Clouds Broken Clouds  
Wind Chill: 77°   Ceiling: 1600
Heat Index: 78°   Visibility: 6mi
Dew Point: 72°   Wind: 7mph
Humidity: 83%   Direction: 340°NNW
Pressure: 30.06"   Gusts: NA
Location:  16.33°N, 89.42°W
Report Text: MGMM 201800Z 34006KT 9999 BKN016 25/22 Q1018 A3006
Loading
Personal Weather Stations






























Interactive Weather Map New forecast layout! Learn more

10-Day Weather Forecast

Advertisements
Track Severe Weather on mobile